sensor_id;sensor_type;location;lat;lon;timestamp;pressure;altitude;pressure_sealevel;temperature;humidity
56070;BME280;41944;52.078;-0.058;2022-09-09T00:02:01;99964.04;;;16.55;100.00
56070;BME280;41944;52.078;-0.058;2022-09-09T00:04:30;99961.76;;;16.63;100.00
56070;BME280;41944;52.078;-0.058;2022-09-09T00:07:04;99962.13;;;16.68;100.00
56070;BME280;41944;52.078;-0.058;2022-09-09T00:09:38;99963.89;;;16.71;100.00
56070;BME280;41944;52.078;-0.058;2022-09-09T00:12:11;99964.01;;;16.70;100.00
56070;BME280;41944;52.078;-0.058;2022-09-09T00:14:47;99966.61;;;16.94;100.00
56070;BME280;41944;52.078;-0.058;2022-09-09T00:17:29;99965.08;;;17.04;100.00
56070;BME280;41944;52.078;-0.058;2022-09-09T00:20:03;99966.47;;;17.09;99.79
56070;BME280;41944;52.078;-0.058;2022-09-09T00:22:32;99963.16;;;16.98;99.73
56070;BME280;41944;52.078;-0.058;2022-09-09T00:25:08;99962.36;;;16.92;99.78
56070;BME280;41944;52.078;-0.058;2022-09-09T00:27:41;99962.06;;;16.92;99.64
56070;BME280;41944;52.078;-0.058;2022-09-09T00:30:17;99961.06;;;16.70;100.00
56070;BME280;41944;52.078;-0.058;2022-09-09T00:32:44;99960.51;;;16.63;100.00
56070;BME280;41944;52.078;-0.058;2022-09-09T00:35:17;99957.99;;;16.56;100.00
56070;BME280;41944;52.078;-0.058;2022-09-09T00:37:46;99958.39;;;16.65;100.00
56070;BME280;41944;52.078;-0.058;2022-09-09T00:40:23;99958.02;;;16.58;100.00
56070;BME280;41944;52.078;-0.058;2022-09-09T00:42:59;99957.61;;;16.64;100.00
56070;BME280;41944;52.078;-0.058;2022-09-09T00:45:52;99956.84;;;16.73;100.00
56070;BME280;41944;52.078;-0.058;2022-09-09T00:48:29;99954.07;;;16.87;100.00
56070;BME280;41944;52.078;-0.058;2022-09-09T00:51:04;99953.97;;;16.80;100.00
56070;BME280;41944;52.078;-0.058;2022-09-09T00:53:39;99951.79;;;16.82;100.00
56070;BME280;41944;52.078;-0.058;2022-09-09T00:56:13;99949.53;;;16.87;100.00
56070;BME280;41944;52.078;-0.058;2022-09-09T00:58:43;99947.98;;;16.74;100.00
56070;BME280;41944;52.078;-0.058;2022-09-09T01:01:16;99947.81;;;16.58;100.00
56070;BME280;41944;52.078;-0.058;2022-09-09T01:03:48;99946.77;;;16.56;100.00
56070;BME280;41944;52.078;-0.058;2022-09-09T01:06:22;99944.31;;;16.54;100.00
56070;BME280;41944;52.078;-0.058;2022-09-09T01:09:02;99946.14;;;16.53;100.00
56070;BME280;41944;52.078;-0.058;2022-09-09T01:11:36;99944.90;;;16.62;100.00
56070;BME280;41944;52.078;-0.058;2022-09-09T01:14:14;99945.13;;;16.64;100.00
56070;BME280;41944;52.078;-0.058;2022-09-09T01:16:44;99947.81;;;16.60;100.00
56070;BME280;41944;52.078;-0.058;2022-09-09T01:19:19;99944.22;;;16.49;100.00
56070;BME280;41944;52.078;-0.058;2022-09-09T01:21:59;99939.90;;;16.43;100.00
56070;BME280;41944;52.078;-0.058;2022-09-09T01:24:36;99944.88;;;16.38;100.00
56070;BME280;41944;52.078;-0.058;2022-09-09T01:27:06;99945.88;;;16.37;100.00
56070;BME280;41944;52.078;-0.058;2022-09-09T01:29:34;99949.88;;;16.45;100.00
56070;BME280;41944;52.078;-0.058;2022-09-09T01:32:02;99951.11;;;16.60;100.00
56070;BME280;41944;52.078;-0.058;2022-09-09T01:34:35;99952.65;;;16.51;100.00
56070;BME280;41944;52.078;-0.058;2022-09-09T01:37:05;99952.68;;;16.52;100.00
56070;BME280;41944;52.078;-0.058;2022-09-09T01:39:35;99951.03;;;16.53;100.00
56070;BME280;41944;52.078;-0.058;2022-09-09T01:42:03;99952.61;;;16.42;100.00
56070;BME280;41944;52.078;-0.058;2022-09-09T01:44:34;99951.89;;;16.55;100.00
56070;BME280;41944;52.078;-0.058;2022-09-09T01:47:02;99950.71;;;16.64;100.00
56070;BME280;41944;52.078;-0.058;2022-09-09T01:49:30;99947.41;;;16.59;100.00
56070;BME280;41944;52.078;-0.058;2022-09-09T01:51:57;99944.58;;;16.48;100.00
56070;BME280;41944;52.078;-0.058;2022-09-09T01:54:27;99938.43;;;16.44;100.00
56070;BME280;41944;52.078;-0.058;2022-09-09T01:57:02;99938.91;;;16.46;100.00
56070;BME280;41944;52.078;-0.058;2022-09-09T01:59:45;99936.95;;;16.53;100.00
56070;BME280;41944;52.078;-0.058;2022-09-09T02:02:18;99937.33;;;16.52;100.00
56070;BME280;41944;52.078;-0.058;2022-09-09T02:04:47;99937.11;;;16.55;100.00
56070;BME280;41944;52.078;-0.058;2022-09-09T02:07:25;99935.88;;;16.63;100.00
56070;BME280;41944;52.078;-0.058;2022-09-09T02:10:00;99936.41;;;16.72;100.00
56070;BME280;41944;52.078;-0.058;2022-09-09T02:12:29;99935.25;;;16.80;100.00
56070;BME280;41944;52.078;-0.058;2022-09-09T02:15:01;99932.89;;;16.65;100.00
56070;BME280;41944;52.078;-0.058;2022-09-09T02:17:33;99933.02;;;16.46;100.00
56070;BME280;41944;52.078;-0.058;2022-09-09T02:20:06;99934.12;;;16.57;100.00
56070;BME280;41944;52.078;-0.058;2022-09-09T02:22:34;99932.03;;;16.55;100.00
56070;BME280;41944;52.078;-0.058;2022-09-09T02:25:05;99929.68;;;16.60;100.00
56070;BME280;41944;52.078;-0.058;2022-09-09T02:27:34;99929.28;;;16.65;100.00
56070;BME280;41944;52.078;-0.058;2022-09-09T02:30:03;99928.26;;;16.63;100.00
56070;BME280;41944;52.078;-0.058;2022-09-09T02:32:32;99925.51;;;16.43;100.00
56070;BME280;41944;52.078;-0.058;2022-09-09T02:35:05;99925.91;;;16.40;100.00
56070;BME280;41944;52.078;-0.058;2022-09-09T02:37:37;99925.61;;;16.51;100.00
56070;BME280;41944;52.078;-0.058;2022-09-09T02:40:06;99926.66;;;16.40;100.00
56070;BME280;41944;52.078;-0.058;2022-09-09T02:42:38;99929.05;;;16.32;100.00
56070;BME280;41944;52.078;-0.058;2022-09-09T02:45:07;99927.76;;;16.30;100.00
56070;BME280;41944;52.078;-0.058;2022-09-09T02:47:35;99927.83;;;16.29;100.00
56070;BME280;41944;52.078;-0.058;2022-09-09T02:50:12;99929.00;;;16.31;100.00
56070;BME280;41944;52.078;-0.058;2022-09-09T02:52:50;99925.76;;;16.28;100.00
56070;BME280;41944;52.078;-0.058;2022-09-09T02:55:24;99926.59;;;16.23;100.00
56070;BME280;41944;52.078;-0.058;2022-09-09T02:57:55;99926.30;;;16.20;100.00
56070;BME280;41944;52.078;-0.058;2022-09-09T03:00:25;99927.43;;;16.20;100.00
56070;BME280;41944;52.078;-0.058;2022-09-09T03:02:52;99928.21;;;16.20;100.00
56070;BME280;41944;52.078;-0.058;2022-09-09T03:05:20;99933.65;;;16.21;100.00
56070;BME280;41944;52.078;-0.058;2022-09-09T03:07:47;99935.33;;;16.25;100.00
56070;BME280;41944;52.078;-0.058;2022-09-09T03:10:14;99935.75;;;16.39;100.00
56070;BME280;41944;52.078;-0.058;2022-09-09T03:12:41;99937.11;;;16.35;100.00
56070;BME280;41944;52.078;-0.058;2022-09-09T03:15:09;99935.44;;;16.31;100.00
56070;BME280;41944;52.078;-0.058;2022-09-09T03:17:36;99937.51;;;16.34;100.00
56070;BME280;41944;52.078;-0.058;2022-09-09T03:20:04;99938.58;;;16.28;100.00
56070;BME280;41944;52.078;-0.058;2022-09-09T03:22:31;99939.72;;;16.30;100.00
56070;BME280;41944;52.078;-0.058;2022-09-09T03:24:58;99941.28;;;16.26;100.00
56070;BME280;41944;52.078;-0.058;2022-09-09T03:27:25;99946.37;;;16.34;100.00
56070;BME280;41944;52.078;-0.058;2022-09-09T03:29:52;99947.19;;;16.28;100.00
56070;BME280;41944;52.078;-0.058;2022-09-09T03:32:19;99949.90;;;16.31;100.00
56070;BME280;41944;52.078;-0.058;2022-09-09T03:34:46;99952.67;;;16.29;100.00
56070;BME280;41944;52.078;-0.058;2022-09-09T03:37:13;99953.79;;;16.28;100.00
56070;BME280;41944;52.078;-0.058;2022-09-09T03:39:40;99954.35;;;16.24;100.00
56070;BME280;41944;52.078;-0.058;2022-09-09T03:42:07;99960.62;;;16.29;100.00
56070;BME280;41944;52.078;-0.058;2022-09-09T03:44:34;99965.57;;;16.28;100.00
56070;BME280;41944;52.078;-0.058;2022-09-09T03:47:01;99968.69;;;16.28;100.00
56070;BME280;41944;52.078;-0.058;2022-09-09T03:49:28;99969.45;;;16.29;100.00
56070;BME280;41944;52.078;-0.058;2022-09-09T03:51:55;99967.49;;;16.28;100.00
56070;BME280;41944;52.078;-0.058;2022-09-09T03:54:23;99970.97;;;16.28;100.00
56070;BME280;41944;52.078;-0.058;2022-09-09T03:56:50;99972.30;;;16.29;100.00
56070;BME280;41944;52.078;-0.058;2022-09-09T03:59:17;99973.26;;;16.31;100.00
56070;BME280;41944;52.078;-0.058;2022-09-09T04:01:44;99974.33;;;16.32;100.00
56070;BME280;41944;52.078;-0.058;2022-09-09T04:04:11;99973.80;;;16.31;100.00
56070;BME280;41944;52.078;-0.058;2022-09-09T04:06:38;99972.75;;;16.33;100.00
56070;BME280;41944;52.078;-0.058;2022-09-09T04:09:05;99970.11;;;16.32;100.00
56070;BME280;41944;52.078;-0.058;2022-09-09T04:11:32;99970.68;;;16.40;100.00
56070;BME280;41944;52.078;-0.058;2022-09-09T04:13:59;99969.61;;;16.35;100.00
56070;BME280;41944;52.078;-0.058;2022-09-09T04:16:27;99965.19;;;16.32;100.00
56070;BME280;41944;52.078;-0.058;2022-09-09T04:18:53;99966.22;;;16.32;100.00
56070;BME280;41944;52.078;-0.058;2022-09-09T04:21:20;99966.92;;;16.31;100.00
56070;BME280;41944;52.078;-0.058;2022-09-09T04:23:47;99967.86;;;16.30;100.00
56070;BME280;41944;52.078;-0.058;2022-09-09T04:26:14;99966.42;;;16.32;100.00
56070;BME280;41944;52.078;-0.058;2022-09-09T04:28:41;99968.25;;;16.50;100.00
56070;BME280;41944;52.078;-0.058;2022-09-09T04:31:10;99967.98;;;16.37;100.00
56070;BME280;41944;52.078;-0.058;2022-09-09T04:33:39;99968.63;;;16.35;100.00
56070;BME280;41944;52.078;-0.058;2022-09-09T04:36:06;99969.22;;;16.34;100.00
56070;BME280;41944;52.078;-0.058;2022-09-09T04:38:34;99970.96;;;16.33;100.00
56070;BME280;41944;52.078;-0.058;2022-09-09T04:41:01;99976.55;;;16.32;100.00
56070;BME280;41944;52.078;-0.058;2022-09-09T04:43:29;99979.04;;;16.42;100.00
56070;BME280;41944;52.078;-0.058;2022-09-09T04:45:56;99984.42;;;16.37;100.00
56070;BME280;41944;52.078;-0.058;2022-09-09T04:48:24;99988.75;;;16.42;100.00
56070;BME280;41944;52.078;-0.058;2022-09-09T04:50:56;99984.97;;;16.41;100.00
56070;BME280;41944;52.078;-0.058;2022-09-09T04:53:24;99984.83;;;16.40;100.00
56070;BME280;41944;52.078;-0.058;2022-09-09T04:55:51;99987.23;;;16.52;100.00
56070;BME280;41944;52.078;-0.058;2022-09-09T04:58:19;99991.79;;;16.40;100.00
56070;BME280;41944;52.078;-0.058;2022-09-09T05:00:46;99993.87;;;16.46;100.00
56070;BME280;41944;52.078;-0.058;2022-09-09T05:03:13;99996.13;;;16.35;100.00
56070;BME280;41944;52.078;-0.058;2022-09-09T05:05:40;100003.60;;;16.56;100.00
56070;BME280;41944;52.078;-0.058;2022-09-09T05:08:08;100006.46;;;16.64;100.00
56070;BME280;41944;52.078;-0.058;2022-09-09T05:10:37;100011.94;;;16.48;100.00
56070;BME280;41944;52.078;-0.058;2022-09-09T05:13:05;100015.15;;;16.62;100.00
56070;BME280;41944;52.078;-0.058;2022-09-09T05:15:33;100018.75;;;16.71;100.00
56070;BME280;41944;52.078;-0.058;2022-09-09T05:18:01;100020.79;;;16.80;100.00
56070;BME280;41944;52.078;-0.058;2022-09-09T05:20:29;100018.84;;;16.84;99.90
56070;BME280;41944;52.078;-0.058;2022-09-09T05:22:56;100021.92;;;17.01;98.65
56070;BME280;41944;52.078;-0.058;2022-09-09T05:25:23;100024.08;;;16.92;98.50
56070;BME280;41944;52.078;-0.058;2022-09-09T05:27:51;100027.55;;;16.72;100.00
56070;BME280;41944;52.078;-0.058;2022-09-09T05:30:18;100029.20;;;16.76;99.68
56070;BME280;41944;52.078;-0.058;2022-09-09T05:32:45;100032.13;;;16.73;100.00
56070;BME280;41944;52.078;-0.058;2022-09-09T05:35:12;100032.91;;;16.73;100.00
56070;BME280;41944;52.078;-0.058;2022-09-09T05:37:39;100028.67;;;16.75;100.00
56070;BME280;41944;52.078;-0.058;2022-09-09T05:40:07;100028.80;;;16.70;100.00
56070;BME280;41944;52.078;-0.058;2022-09-09T05:42:34;100027.19;;;16.48;100.00
56070;BME280;41944;52.078;-0.058;2022-09-09T05:45:02;100031.04;;;16.72;99.87
56070;BME280;41944;52.078;-0.058;2022-09-09T05:47:28;100026.91;;;16.57;100.00
56070;BME280;41944;52.078;-0.058;2022-09-09T05:49:56;100029.69;;;16.62;100.00
56070;BME280;41944;52.078;-0.058;2022-09-09T05:52:23;100030.90;;;16.65;100.00
56070;BME280;41944;52.078;-0.058;2022-09-09T05:54:51;100031.98;;;16.62;100.00
56070;BME280;41944;52.078;-0.058;2022-09-09T05:57:18;100035.35;;;16.63;100.00
56070;BME280;41944;52.078;-0.058;2022-09-09T05:59:44;100040.37;;;16.74;98.96
56070;BME280;41944;52.078;-0.058;2022-09-09T06:02:11;100042.24;;;16.85;98.26
56070;BME280;41944;52.078;-0.058;2022-09-09T06:04:38;100041.66;;;16.57;99.86
56070;BME280;41944;52.078;-0.058;2022-09-09T06:07:05;100046.23;;;16.40;100.00
56070;BME280;41944;52.078;-0.058;2022-09-09T06:09:33;100042.66;;;16.64;99.63
56070;BME280;41944;52.078;-0.058;2022-09-09T06:12:00;100043.99;;;16.65;98.61
56070;BME280;41944;52.078;-0.058;2022-09-09T06:14:27;100042.15;;;16.62;99.13
56070;BME280;41944;52.078;-0.058;2022-09-09T06:16:53;100042.50;;;16.66;99.35
56070;BME280;41944;52.078;-0.058;2022-09-09T06:19:20;100048.25;;;16.69;98.81
56070;BME280;41944;52.078;-0.058;2022-09-09T06:21:48;100055.15;;;16.67;99.26
56070;BME280;41944;52.078;-0.058;2022-09-09T06:24:15;100061.21;;;16.91;97.20
56070;BME280;41944;52.078;-0.058;2022-09-09T06:26:42;100067.17;;;16.96;97.09
56070;BME280;41944;52.078;-0.058;2022-09-09T06:29:09;100068.56;;;17.02;96.70
56070;BME280;41944;52.078;-0.058;2022-09-09T06:31:37;100070.68;;;16.83;97.76
56070;BME280;41944;52.078;-0.058;2022-09-09T06:34:07;100072.14;;;16.76;97.91
56070;BME280;41944;52.078;-0.058;2022-09-09T06:36:36;100071.75;;;16.80;97.42
56070;BME280;41944;52.078;-0.058;2022-09-09T06:39:04;100074.19;;;16.70;98.91
56070;BME280;41944;52.078;-0.058;2022-09-09T06:41:32;100077.95;;;16.79;98.34
56070;BME280;41944;52.078;-0.058;2022-09-09T06:44:00;100081.91;;;16.85;97.82
56070;BME280;41944;52.078;-0.058;2022-09-09T06:46:28;100080.06;;;16.97;96.30
56070;BME280;41944;52.078;-0.058;2022-09-09T06:48:56;100085.81;;;16.90;96.87
56070;BME280;41944;52.078;-0.058;2022-09-09T06:51:25;100088.41;;;17.00;96.38
56070;BME280;41944;52.078;-0.058;2022-09-09T06:53:54;100090.31;;;16.80;96.47
56070;BME280;41944;52.078;-0.058;2022-09-09T06:56:23;100088.68;;;16.93;96.51
56070;BME280;41944;52.078;-0.058;2022-09-09T06:58:52;100092.17;;;17.00;95.59
56070;BME280;41944;52.078;-0.058;2022-09-09T07:01:20;100094.09;;;16.93;95.63
56070;BME280;41944;52.078;-0.058;2022-09-09T07:03:51;100098.57;;;16.94;95.77
56070;BME280;41944;52.078;-0.058;2022-09-09T07:06:20;100098.49;;;16.91;95.54
56070;BME280;41944;52.078;-0.058;2022-09-09T07:08:49;100101.07;;;16.91;95.18
56070;BME280;41944;52.078;-0.058;2022-09-09T07:11:18;100110.64;;;16.84;96.19
56070;BME280;41944;52.078;-0.058;2022-09-09T07:13:46;100112.93;;;16.97;95.13
56070;BME280;41944;52.078;-0.058;2022-09-09T07:16:15;100116.55;;;16.85;95.74
56070;BME280;41944;52.078;-0.058;2022-09-09T07:18:43;100117.38;;;16.92;95.04
56070;BME280;41944;52.078;-0.058;2022-09-09T07:21:13;100121.35;;;16.92;95.03
56070;BME280;41944;52.078;-0.058;2022-09-09T07:23:41;100122.47;;;16.92;95.10
56070;BME280;41944;52.078;-0.058;2022-09-09T07:26:09;100128.30;;;16.90;95.19
56070;BME280;41944;52.078;-0.058;2022-09-09T07:28:37;100127.37;;;16.88;95.55
56070;BME280;41944;52.078;-0.058;2022-09-09T07:31:05;100126.20;;;16.94;95.53
56070;BME280;41944;52.078;-0.058;2022-09-09T07:33:34;100127.37;;;16.95;95.76
56070;BME280;41944;52.078;-0.058;2022-09-09T07:36:05;100130.92;;;17.01;95.74
56070;BME280;41944;52.078;-0.058;2022-09-09T07:38:38;100135.56;;;16.81;96.04
56070;BME280;41944;52.078;-0.058;2022-09-09T07:41:06;100134.83;;;16.98;95.78
56070;BME280;41944;52.078;-0.058;2022-09-09T07:43:34;100142.02;;;16.80;96.80
56070;BME280;41944;52.078;-0.058;2022-09-09T07:46:01;100144.85;;;16.87;96.99
56070;BME280;41944;52.078;-0.058;2022-09-09T07:48:29;100150.23;;;16.97;96.88
56070;BME280;41944;52.078;-0.058;2022-09-09T07:51:07;100153.82;;;17.08;95.77
56070;BME280;41944;52.078;-0.058;2022-09-09T07:53:34;100158.47;;;17.12;95.69
56070;BME280;41944;52.078;-0.058;2022-09-09T07:56:03;100163.50;;;17.06;96.07
56070;BME280;41944;52.078;-0.058;2022-09-09T07:58:30;100164.56;;;17.10;95.93
56070;BME280;41944;52.078;-0.058;2022-09-09T08:00:58;100163.85;;;17.23;95.79
56070;BME280;41944;52.078;-0.058;2022-09-09T08:03:25;100168.27;;;17.12;96.88
56070;BME280;41944;52.078;-0.058;2022-09-09T08:05:52;100171.98;;;17.35;94.74
56070;BME280;41944;52.078;-0.058;2022-09-09T08:08:20;100172.75;;;17.45;94.37
56070;BME280;41944;52.078;-0.058;2022-09-09T08:10:47;100175.19;;;17.34;94.85
56070;BME280;41944;52.078;-0.058;2022-09-09T08:13:14;100179.96;;;17.29;95.19
56070;BME280;41944;52.078;-0.058;2022-09-09T08:15:41;100182.91;;;17.44;94.76
56070;BME280;41944;52.078;-0.058;2022-09-09T08:18:09;100189.53;;;17.49;93.86
56070;BME280;41944;52.078;-0.058;2022-09-09T08:20:36;100195.67;;;17.54;93.24
56070;BME280;41944;52.078;-0.058;2022-09-09T08:23:04;100196.92;;;17.40;94.24
56070;BME280;41944;52.078;-0.058;2022-09-09T08:25:31;100199.78;;;17.45;93.76
56070;BME280;41944;52.078;-0.058;2022-09-09T08:27:58;100204.75;;;17.61;93.83
56070;BME280;41944;52.078;-0.058;2022-09-09T08:30:25;100209.05;;;17.72;92.95
56070;BME280;41944;52.078;-0.058;2022-09-09T08:32:52;100209.72;;;17.68;94.01
56070;BME280;41944;52.078;-0.058;2022-09-09T08:35:20;100212.93;;;17.72;93.30
56070;BME280;41944;52.078;-0.058;2022-09-09T08:37:48;100214.20;;;17.85;92.72
56070;BME280;41944;52.078;-0.058;2022-09-09T08:40:25;100214.68;;;18.02;92.01
56070;BME280;41944;52.078;-0.058;2022-09-09T08:42:59;100215.13;;;18.07;91.47
56070;BME280;41944;52.078;-0.058;2022-09-09T08:45:31;100214.86;;;18.15;90.16
56070;BME280;41944;52.078;-0.058;2022-09-09T08:48:09;100216.88;;;18.32;88.92
56070;BME280;41944;52.078;-0.058;2022-09-09T08:50:39;100218.00;;;18.30;88.82
56070;BME280;41944;52.078;-0.058;2022-09-09T08:53:11;100222.11;;;18.39;88.81
56070;BME280;41944;52.078;-0.058;2022-09-09T08:55:45;100222.95;;;18.44;87.99
56070;BME280;41944;52.078;-0.058;2022-09-09T08:58:15;100227.89;;;18.45;87.54
56070;BME280;41944;52.078;-0.058;2022-09-09T09:00:56;100229.84;;;18.52;87.22
56070;BME280;41944;52.078;-0.058;2022-09-09T09:03:31;100233.86;;;18.44;88.43
56070;BME280;41944;52.078;-0.058;2022-09-09T09:06:08;100239.23;;;18.72;86.12
56070;BME280;41944;52.078;-0.058;2022-09-09T09:08:45;100243.67;;;18.76;85.97
56070;BME280;41944;52.078;-0.058;2022-09-09T09:11:14;100246.51;;;18.73;87.12
56070;BME280;41944;52.078;-0.058;2022-09-09T09:13:45;100250.20;;;18.74;87.40
56070;BME280;41944;52.078;-0.058;2022-09-09T09:16:20;100249.50;;;18.79;85.19
56070;BME280;41944;52.078;-0.058;2022-09-09T09:18:49;100253.73;;;18.91;84.60
56070;BME280;41944;52.078;-0.058;2022-09-09T09:21:21;100257.98;;;18.95;85.20
56070;BME280;41944;52.078;-0.058;2022-09-09T09:23:56;100263.11;;;18.95;85.14
56070;BME280;41944;52.078;-0.058;2022-09-09T09:26:28;100268.60;;;18.95;84.56
56070;BME280;41944;52.078;-0.058;2022-09-09T09:28:59;100270.45;;;19.10;84.00
56070;BME280;41944;52.078;-0.058;2022-09-09T09:31:28;100272.34;;;19.18;83.80
56070;BME280;41944;52.078;-0.058;2022-09-09T09:33:56;100274.39;;;19.15;82.49
56070;BME280;41944;52.078;-0.058;2022-09-09T09:36:25;100277.51;;;19.23;82.06
56070;BME280;41944;52.078;-0.058;2022-09-09T09:39:01;100278.71;;;19.41;81.09
56070;BME280;41944;52.078;-0.058;2022-09-09T09:41:30;100281.99;;;19.52;80.02
56070;BME280;41944;52.078;-0.058;2022-09-09T09:43:58;100284.41;;;19.34;81.97
56070;BME280;41944;52.078;-0.058;2022-09-09T09:46:25;100281.62;;;19.38;81.02
56070;BME280;41944;52.078;-0.058;2022-09-09T09:49:01;100284.87;;;19.44;80.85
56070;BME280;41944;52.078;-0.058;2022-09-09T09:51:30;100291.97;;;19.38;82.03
56070;BME280;41944;52.078;-0.058;2022-09-09T09:54:14;100291.55;;;19.51;80.53
56070;BME280;41944;52.078;-0.058;2022-09-09T09:56:45;100291.59;;;19.65;79.54
56070;BME280;41944;52.078;-0.058;2022-09-09T09:59:34;100294.14;;;19.61;80.07
56070;BME280;41944;52.078;-0.058;2022-09-09T10:02:21;100294.74;;;19.66;80.29
56070;BME280;41944;52.078;-0.058;2022-09-09T10:04:48;100297.76;;;19.71;80.53
56070;BME280;41944;52.078;-0.058;2022-09-09T10:07:20;100298.49;;;19.91;79.85
56070;BME280;41944;52.078;-0.058;2022-09-09T10:09:52;100298.58;;;20.24;79.08
56070;BME280;41944;52.078;-0.058;2022-09-09T10:12:30;100298.52;;;20.29;78.18
56070;BME280;41944;52.078;-0.058;2022-09-09T10:15:07;100304.99;;;20.36;78.20
56070;BME280;41944;52.078;-0.058;2022-09-09T10:17:53;100305.45;;;20.29;77.89
56070;BME280;41944;52.078;-0.058;2022-09-09T10:20:32;100307.76;;;20.39;76.77
56070;BME280;41944;52.078;-0.058;2022-09-09T10:23:12;100311.30;;;20.40;78.10
56070;BME280;41944;52.078;-0.058;2022-09-09T10:25:58;100306.78;;;20.35;78.13
56070;BME280;41944;52.078;-0.058;2022-09-09T10:28:38;100313.32;;;20.51;77.43
56070;BME280;41944;52.078;-0.058;2022-09-09T10:31:17;100314.48;;;20.60;76.31
56070;BME280;41944;52.078;-0.058;2022-09-09T10:33:51;100318.61;;;20.64;76.45
56070;BME280;41944;52.078;-0.058;2022-09-09T10:36:21;100319.47;;;20.63;75.09
56070;BME280;41944;52.078;-0.058;2022-09-09T10:38:53;100318.61;;;20.38;75.89
56070;BME280;41944;52.078;-0.058;2022-09-09T10:41:36;100317.84;;;20.25;76.95
56070;BME280;41944;52.078;-0.058;2022-09-09T10:44:15;100321.67;;;20.38;76.35
56070;BME280;41944;52.078;-0.058;2022-09-09T10:46:55;100324.81;;;20.42;76.42
56070;BME280;41944;52.078;-0.058;2022-09-09T10:49:43;100326.67;;;20.42;76.58
56070;BME280;41944;52.078;-0.058;2022-09-09T10:52:18;100331.53;;;20.67;75.41
56070;BME280;41944;52.078;-0.058;2022-09-09T10:54:55;100332.19;;;20.64;74.88
56070;BME280;41944;52.078;-0.058;2022-09-09T10:57:29;100330.39;;;20.57;76.16
56070;BME280;41944;52.078;-0.058;2022-09-09T11:00:02;100336.02;;;20.83;75.05
56070;BME280;41944;52.078;-0.058;2022-09-09T11:02:31;100333.79;;;20.88;74.28
56070;BME280;41944;52.078;-0.058;2022-09-09T11:05:03;100332.34;;;21.06;74.19
56070;BME280;41944;52.078;-0.058;2022-09-09T11:07:39;100330.06;;;21.13;73.51
56070;BME280;41944;52.078;-0.058;2022-09-09T11:10:18;100326.71;;;21.29;72.69
56070;BME280;41944;52.078;-0.058;2022-09-09T11:12:52;100322.29;;;21.42;71.05
56070;BME280;41944;52.078;-0.058;2022-09-09T11:15:28;100328.37;;;21.61;69.66
56070;BME280;41944;52.078;-0.058;2022-09-09T11:17:58;100326.93;;;21.72;68.93
56070;BME280;41944;52.078;-0.058;2022-09-09T11:20:27;100326.13;;;21.97;68.84
56070;BME280;41944;52.078;-0.058;2022-09-09T11:22:59;100328.79;;;22.20;68.11
56070;BME280;41944;52.078;-0.058;2022-09-09T11:25:32;100326.26;;;22.38;67.81
56070;BME280;41944;52.078;-0.058;2022-09-09T11:28:16;100326.08;;;22.33;66.63
56070;BME280;41944;52.078;-0.058;2022-09-09T11:30:58;100326.68;;;22.13;68.21
56070;BME280;41944;52.078;-0.058;2022-09-09T11:33:42;100324.71;;;22.16;66.45
56070;BME280;41944;52.078;-0.058;2022-09-09T11:36:33;100324.40;;;22.21;66.17
56070;BME280;41944;52.078;-0.058;2022-09-09T11:39:12;100326.81;;;22.30;66.41
56070;BME280;41944;52.078;-0.058;2022-09-09T11:41:45;100327.05;;;22.36;65.76
56070;BME280;41944;52.078;-0.058;2022-09-09T11:44:13;100328.39;;;22.13;67.23
56070;BME280;41944;52.078;-0.058;2022-09-09T11:46:48;100330.89;;;22.16;66.59
56070;BME280;41944;52.078;-0.058;2022-09-09T11:49:27;100326.98;;;22.13;67.06
56070;BME280;41944;52.078;-0.058;2022-09-09T11:51:54;100332.30;;;22.32;66.99
56070;BME280;41944;52.078;-0.058;2022-09-09T11:54:29;100330.96;;;22.60;65.54
56070;BME280;41944;52.078;-0.058;2022-09-09T11:56:57;100326.47;;;22.86;63.07
56070;BME280;41944;52.078;-0.058;2022-09-09T11:59:26;100329.25;;;23.09;62.83
56070;BME280;41944;52.078;-0.058;2022-09-09T12:01:56;100330.14;;;23.27;61.76
56070;BME280;41944;52.078;-0.058;2022-09-09T12:04:31;100327.62;;;23.29;61.17
56070;BME280;41944;52.078;-0.058;2022-09-09T12:07:02;100328.72;;;23.63;60.53
56070;BME280;41944;52.078;-0.058;2022-09-09T12:09:39;100326.00;;;23.58;59.48
56070;BME280;41944;52.078;-0.058;2022-09-09T12:12:23;100326.30;;;23.71;60.52
56070;BME280;41944;52.078;-0.058;2022-09-09T12:14:58;100328.73;;;23.70;60.02
56070;BME280;41944;52.078;-0.058;2022-09-09T12:17:28;100324.20;;;23.89;58.74
56070;BME280;41944;52.078;-0.058;2022-09-09T12:20:11;100326.12;;;23.78;59.56
56070;BME280;41944;52.078;-0.058;2022-09-09T12:22:47;100330.21;;;23.83;58.49
56070;BME280;41944;52.078;-0.058;2022-09-09T12:25:26;100328.81;;;23.91;58.56
56070;BME280;41944;52.078;-0.058;2022-09-09T12:28:05;100329.48;;;23.95;55.05
56070;BME280;41944;52.078;-0.058;2022-09-09T12:30:49;100331.91;;;23.75;56.97
56070;BME280;41944;52.078;-0.058;2022-09-09T12:33:21;100330.21;;;23.85;57.61
56070;BME280;41944;52.078;-0.058;2022-09-09T12:35:54;100327.65;;;23.97;57.00
56070;BME280;41944;52.078;-0.058;2022-09-09T12:38:27;100326.87;;;24.14;57.30
56070;BME280;41944;52.078;-0.058;2022-09-09T12:40:57;100326.83;;;24.29;57.03
56070;BME280;41944;52.078;-0.058;2022-09-09T12:43:26;100329.08;;;24.35;56.27
56070;BME280;41944;52.078;-0.058;2022-09-09T12:45:57;100323.06;;;24.54;55.51
56070;BME280;41944;52.078;-0.058;2022-09-09T12:48:29;100327.61;;;24.73;55.53
56070;BME280;41944;52.078;-0.058;2022-09-09T12:50:59;100329.53;;;24.90;55.85
56070;BME280;41944;52.078;-0.058;2022-09-09T12:53:29;100333.45;;;24.94;55.24
56070;BME280;41944;52.078;-0.058;2022-09-09T12:55:59;100333.19;;;24.85;53.99
56070;BME280;41944;52.078;-0.058;2022-09-09T12:58:28;100333.90;;;24.47;55.34
56070;BME280;41944;52.078;-0.058;2022-09-09T13:00:57;100336.22;;;24.29;55.28